Aalter, Belgium
Current Conditions -  °F | °C
As of 10:55 PM on Friday 24 Oct 2014 (Local Time) from EHFS Reporting Station
Overcast Overcast  
Wind Chill: 13°   Ceiling: 700
Heat Index: 13°   Visibility: 6mi
Dew Point: 12°   Wind: 22mph
Humidity: 94%   Direction: 200°SSW
Pressure: 29.97"   Gusts: NA
Location:  51.09°N, 3.45°E
Report Text: EHFS 242055Z AUTO 20019KT 9999 FEW005/// BKN007/// OVC009///13/12 Q1015
Loading
Personal Weather Stations






























Interactive Weather Map
Tropical Storm Tracking
New forecast layout! Learn more

10-Day Weather Forecast

Advertisements
Track Severe Weather on mobile